MYNN

Lynden Pindling International Airport

Nassau, , Bahamas
TAF COR MYNN 212240Z 2200/2224 07006KT 9999 VCSH FEW015CB SCT018 PROB30 TEMPO 2211/2217 SHRA SCT015CB
Issued Valid From Valid To
Sep-21 @ 22:40 UTC
(6 hours ago)
Sep-22 @ 00:00 UTC
(4 hours ago)
Sep-23 @ 00:00 UTC
(in 20 hours)
to
to
TAF COR MYNN 212240Z 2200/2224 07006KT 9999 VCSH FEW015CB SCT018 PROB30 TEMPO 2211/2217 SHRA SCT015CB
Issued Sep-21 @ 22:40 UTC
(6 hours ago)
Valid From Sep-22 @ 00:00 UTC
(4 hours ago)
Valid To Sep-23 @ 00:00 UTC
(in 20 hours)
-
-